sensor_id;sensor_type;location;lat;lon;timestamp;P1;durP1;ratioP1;P2;durP2;ratioP2
52180;SDS011;38158;53.338;6.514;2024-03-02T00:01:58;6.35;;;3.72;;
52180;SDS011;38158;53.338;6.514;2024-03-02T00:04:24;6.80;;;2.80;;
52180;SDS011;38158;53.338;6.514;2024-03-02T00:06:52;6.20;;;3.35;;
52180;SDS011;38158;53.338;6.514;2024-03-02T00:09:19;4.72;;;2.95;;
52180;SDS011;38158;53.338;6.514;2024-03-02T00:11:45;5.30;;;2.90;;
52180;SDS011;38158;53.338;6.514;2024-03-02T00:14:11;4.43;;;2.78;;
52180;SDS011;38158;53.338;6.514;2024-03-02T00:16:37;4.43;;;2.45;;
52180;SDS011;38158;53.338;6.514;2024-03-02T00:19:03;5.80;;;2.75;;
52180;SDS011;38158;53.338;6.514;2024-03-02T00:21:31;5.00;;;2.67;;
52180;SDS011;38158;53.338;6.514;2024-03-02T00:23:57;4.70;;;2.65;;
52180;SDS011;38158;53.338;6.514;2024-03-02T00:26:23;6.17;;;2.90;;
52180;SDS011;38158;53.338;6.514;2024-03-02T00:28:49;5.85;;;3.25;;
52180;SDS011;38158;53.338;6.514;2024-03-02T00:31:15;4.40;;;2.53;;
52180;SDS011;38158;53.338;6.514;2024-03-02T00:33:45;6.72;;;3.22;;
52180;SDS011;38158;53.338;6.514;2024-03-02T00:36:31;5.95;;;3.05;;
52180;SDS011;38158;53.338;6.514;2024-03-02T00:38:57;5.30;;;2.55;;
52180;SDS011;38158;53.338;6.514;2024-03-02T00:46:34;5.57;;;3.17;;
52180;SDS011;38158;53.338;6.514;2024-03-02T00:49:05;6.60;;;3.53;;
52180;SDS011;38158;53.338;6.514;2024-03-02T00:51:53;5.53;;;2.95;;
52180;SDS011;38158;53.338;6.514;2024-03-02T00:54:20;6.13;;;3.17;;
52180;SDS011;38158;53.338;6.514;2024-03-02T00:56:51;5.50;;;3.20;;
52180;SDS011;38158;53.338;6.514;2024-03-02T00:59:20;6.30;;;3.50;;
52180;SDS011;38158;53.338;6.514;2024-03-02T01:01:47;7.07;;;3.63;;
52180;SDS011;38158;53.338;6.514;2024-03-02T01:04:13;5.32;;;2.88;;
52180;SDS011;38158;53.338;6.514;2024-03-02T01:06:39;4.78;;;2.90;;
52180;SDS011;38158;53.338;6.514;2024-03-02T01:09:04;5.53;;;2.95;;
52180;SDS011;38158;53.338;6.514;2024-03-02T01:11:30;5.97;;;3.13;;
52180;SDS011;38158;53.338;6.514;2024-03-02T01:13:56;6.47;;;3.30;;
52180;SDS011;38158;53.338;6.514;2024-03-02T01:16:22;6.15;;;3.15;;
52180;SDS011;38158;53.338;6.514;2024-03-02T01:18:48;6.15;;;3.25;;
52180;SDS011;38158;53.338;6.514;2024-03-02T01:21:14;5.35;;;3.10;;
52180;SDS011;38158;53.338;6.514;2024-03-02T01:23:40;6.00;;;3.10;;
52180;SDS011;38158;53.338;6.514;2024-03-02T01:26:05;5.30;;;2.85;;
52180;SDS011;38158;53.338;6.514;2024-03-02T01:28:32;5.22;;;2.30;;
52180;SDS011;38158;53.338;6.514;2024-03-02T01:30:58;4.90;;;3.10;;
52180;SDS011;38158;53.338;6.514;2024-03-02T01:33:23;5.82;;;3.28;;
52180;SDS011;38158;53.338;6.514;2024-03-02T01:35:49;5.38;;;2.97;;
52180;SDS011;38158;53.338;6.514;2024-03-02T01:38:15;4.70;;;2.85;;
52180;SDS011;38158;53.338;6.514;2024-03-02T01:40:41;4.93;;;2.60;;
52180;SDS011;38158;53.338;6.514;2024-03-02T01:43:09;5.28;;;2.95;;
52180;SDS011;38158;53.338;6.514;2024-03-02T01:45:35;4.97;;;3.03;;
52180;SDS011;38158;53.338;6.514;2024-03-02T01:48:02;5.57;;;3.17;;
52180;SDS011;38158;53.338;6.514;2024-03-02T01:50:32;6.15;;;3.58;;
52180;SDS011;38158;53.338;6.514;2024-03-02T01:52:58;5.80;;;3.03;;
52180;SDS011;38158;53.338;6.514;2024-03-02T01:55:24;11.60;;;3.03;;
52180;SDS011;38158;53.338;6.514;2024-03-02T01:57:51;6.38;;;3.47;;
52180;SDS011;38158;53.338;6.514;2024-03-02T02:00:20;5.85;;;3.10;;
52180;SDS011;38158;53.338;6.514;2024-03-02T02:02:50;5.68;;;3.33;;
52180;SDS011;38158;53.338;6.514;2024-03-02T02:05:16;7.63;;;3.30;;
52180;SDS011;38158;53.338;6.514;2024-03-02T02:07:42;6.10;;;3.30;;
52180;SDS011;38158;53.338;6.514;2024-03-02T02:10:09;5.70;;;3.33;;
52180;SDS011;38158;53.338;6.514;2024-03-02T02:12:36;7.53;;;3.05;;
52180;SDS011;38158;53.338;6.514;2024-03-02T02:15:02;8.15;;;3.47;;
52180;SDS011;38158;53.338;6.514;2024-03-02T02:17:28;6.03;;;3.08;;
52180;SDS011;38158;53.338;6.514;2024-03-02T02:19:54;6.40;;;3.13;;
52180;SDS011;38158;53.338;6.514;2024-03-02T02:22:21;6.88;;;4.03;;
52180;SDS011;38158;53.338;6.514;2024-03-02T02:24:46;5.55;;;3.20;;
52180;SDS011;38158;53.338;6.514;2024-03-02T02:27:12;5.45;;;3.38;;
52180;SDS011;38158;53.338;6.514;2024-03-02T02:29:40;6.65;;;3.60;;
52180;SDS011;38158;53.338;6.514;2024-03-02T02:32:06;6.90;;;3.97;;
52180;SDS011;38158;53.338;6.514;2024-03-02T02:34:32;8.35;;;4.28;;
52180;SDS011;38158;53.338;6.514;2024-03-02T02:36:58;9.13;;;4.40;;
52180;SDS011;38158;53.338;6.514;2024-03-02T02:39:24;6.97;;;3.35;;
52180;SDS011;38158;53.338;6.514;2024-03-02T02:41:50;6.20;;;3.50;;
52180;SDS011;38158;53.338;6.514;2024-03-02T02:44:15;11.30;;;4.90;;
52180;SDS011;38158;53.338;6.514;2024-03-02T02:46:42;8.70;;;4.38;;
52180;SDS011;38158;53.338;6.514;2024-03-02T02:49:08;8.32;;;3.72;;
52180;SDS011;38158;53.338;6.514;2024-03-02T02:51:34;11.32;;;4.80;;
52180;SDS011;38158;53.338;6.514;2024-03-02T02:54:02;7.72;;;4.10;;
52180;SDS011;38158;53.338;6.514;2024-03-02T02:56:28;5.75;;;3.83;;
52180;SDS011;38158;53.338;6.514;2024-03-02T02:58:54;8.07;;;4.15;;
52180;SDS011;38158;53.338;6.514;2024-03-02T03:01:20;6.35;;;2.58;;
52180;SDS011;38158;53.338;6.514;2024-03-02T03:03:45;4.22;;;2.50;;
52180;SDS011;38158;53.338;6.514;2024-03-02T03:06:11;4.88;;;2.72;;
52180;SDS011;38158;53.338;6.514;2024-03-02T03:08:37;5.18;;;3.10;;
52180;SDS011;38158;53.338;6.514;2024-03-02T03:11:04;5.75;;;2.60;;
52180;SDS011;38158;53.338;6.514;2024-03-02T03:13:30;4.67;;;2.80;;
52180;SDS011;38158;53.338;6.514;2024-03-02T03:15:57;4.85;;;2.47;;
52180;SDS011;38158;53.338;6.514;2024-03-02T03:18:22;4.88;;;2.88;;
52180;SDS011;38158;53.338;6.514;2024-03-02T03:20:48;6.15;;;2.83;;
52180;SDS011;38158;53.338;6.514;2024-03-02T03:23:15;12.80;;;3.30;;
52180;SDS011;38158;53.338;6.514;2024-03-02T03:25:42;4.88;;;2.60;;
52180;SDS011;38158;53.338;6.514;2024-03-02T03:28:08;5.30;;;2.70;;
52180;SDS011;38158;53.338;6.514;2024-03-02T03:30:36;5.32;;;2.53;;
52180;SDS011;38158;53.338;6.514;2024-03-02T03:33:02;3.95;;;2.17;;
52180;SDS011;38158;53.338;6.514;2024-03-02T03:35:31;9.32;;;3.03;;
52180;SDS011;38158;53.338;6.514;2024-03-02T03:37:57;3.92;;;2.10;;
52180;SDS011;38158;53.338;6.514;2024-03-02T03:40:22;4.30;;;2.60;;
52180;SDS011;38158;53.338;6.514;2024-03-02T03:42:48;5.65;;;2.53;;
52180;SDS011;38158;53.338;6.514;2024-03-02T03:45:15;7.28;;;2.40;;
52180;SDS011;38158;53.338;6.514;2024-03-02T03:47:41;5.03;;;2.40;;
52180;SDS011;38158;53.338;6.514;2024-03-02T03:50:06;4.15;;;1.73;;
52180;SDS011;38158;53.338;6.514;2024-03-02T03:52:32;4.40;;;2.20;;
52180;SDS011;38158;53.338;6.514;2024-03-02T03:54:58;3.42;;;1.80;;
52180;SDS011;38158;53.338;6.514;2024-03-02T03:57:25;3.58;;;2.00;;
52180;SDS011;38158;53.338;6.514;2024-03-02T03:59:51;5.47;;;2.27;;
52180;SDS011;38158;53.338;6.514;2024-03-02T04:02:17;3.90;;;1.70;;
52180;SDS011;38158;53.338;6.514;2024-03-02T04:04:42;4.57;;;2.00;;
52180;SDS011;38158;53.338;6.514;2024-03-02T04:07:08;3.83;;;2.10;;
52180;SDS011;38158;53.338;6.514;2024-03-02T04:09:34;3.45;;;1.90;;
52180;SDS011;38158;53.338;6.514;2024-03-02T04:12:00;3.60;;;1.77;;
52180;SDS011;38158;53.338;6.514;2024-03-02T04:14:25;4.93;;;2.17;;
52180;SDS011;38158;53.338;6.514;2024-03-02T04:16:51;3.53;;;1.77;;
52180;SDS011;38158;53.338;6.514;2024-03-02T04:19:16;4.28;;;1.90;;
52180;SDS011;38158;53.338;6.514;2024-03-02T04:21:42;3.88;;;1.90;;
52180;SDS011;38158;53.338;6.514;2024-03-02T04:24:08;3.85;;;1.90;;
52180;SDS011;38158;53.338;6.514;2024-03-02T04:26:33;4.30;;;2.20;;
52180;SDS011;38158;53.338;6.514;2024-03-02T04:28:59;3.97;;;1.70;;
52180;SDS011;38158;53.338;6.514;2024-03-02T04:31:25;4.25;;;2.03;;
52180;SDS011;38158;53.338;6.514;2024-03-02T04:33:51;3.95;;;1.85;;
52180;SDS011;38158;53.338;6.514;2024-03-02T04:36:16;5.70;;;2.08;;
52180;SDS011;38158;53.338;6.514;2024-03-02T04:38:43;4.82;;;1.80;;
52180;SDS011;38158;53.338;6.514;2024-03-02T04:41:09;6.43;;;2.22;;
52180;SDS011;38158;53.338;6.514;2024-03-02T04:43:34;3.80;;;1.88;;
52180;SDS011;38158;53.338;6.514;2024-03-02T04:46:00;3.67;;;2.30;;
52180;SDS011;38158;53.338;6.514;2024-03-02T04:48:26;4.75;;;2.10;;
52180;SDS011;38158;53.338;6.514;2024-03-02T04:50:52;4.45;;;2.22;;
52180;SDS011;38158;53.338;6.514;2024-03-02T04:53:19;4.32;;;1.88;;
52180;SDS011;38158;53.338;6.514;2024-03-02T04:55:45;4.60;;;1.98;;
52180;SDS011;38158;53.338;6.514;2024-03-02T04:58:29;6.82;;;2.22;;
52180;SDS011;38158;53.338;6.514;2024-03-02T05:00:55;3.97;;;2.00;;
52180;SDS011;38158;53.338;6.514;2024-03-02T05:03:21;4.30;;;2.03;;
52180;SDS011;38158;53.338;6.514;2024-03-02T05:05:47;4.65;;;2.55;;
52180;SDS011;38158;53.338;6.514;2024-03-02T05:08:12;3.08;;;1.85;;
52180;SDS011;38158;53.338;6.514;2024-03-02T05:10:38;5.10;;;2.40;;
52180;SDS011;38158;53.338;6.514;2024-03-02T05:13:04;3.70;;;1.98;;
52180;SDS011;38158;53.338;6.514;2024-03-02T05:15:29;5.28;;;1.90;;
52180;SDS011;38158;53.338;6.514;2024-03-02T05:17:55;3.85;;;2.08;;
52180;SDS011;38158;53.338;6.514;2024-03-02T05:20:22;3.92;;;2.40;;
52180;SDS011;38158;53.338;6.514;2024-03-02T05:22:47;10.00;;;2.92;;
52180;SDS011;38158;53.338;6.514;2024-03-02T05:25:14;3.60;;;1.85;;
52180;SDS011;38158;53.338;6.514;2024-03-02T05:27:41;4.57;;;2.13;;
52180;SDS011;38158;53.338;6.514;2024-03-02T05:30:07;3.75;;;1.83;;
52180;SDS011;38158;53.338;6.514;2024-03-02T05:32:33;6.23;;;2.17;;
52180;SDS011;38158;53.338;6.514;2024-03-02T05:34:59;5.68;;;2.03;;
52180;SDS011;38158;53.338;6.514;2024-03-02T05:37:25;4.38;;;2.30;;
52180;SDS011;38158;53.338;6.514;2024-03-02T05:39:50;5.35;;;2.58;;
52180;SDS011;38158;53.338;6.514;2024-03-02T05:42:16;4.90;;;2.10;;
52180;SDS011;38158;53.338;6.514;2024-03-02T05:44:42;3.90;;;2.20;;
52180;SDS011;38158;53.338;6.514;2024-03-02T05:47:08;5.22;;;2.35;;
52180;SDS011;38158;53.338;6.514;2024-03-02T05:49:34;4.03;;;2.00;;
52180;SDS011;38158;53.338;6.514;2024-03-02T05:52:00;3.75;;;1.80;;
52180;SDS011;38158;53.338;6.514;2024-03-02T05:54:25;5.20;;;2.13;;
52180;SDS011;38158;53.338;6.514;2024-03-02T05:56:51;4.80;;;1.95;;
52180;SDS011;38158;53.338;6.514;2024-03-02T05:59:17;5.47;;;2.15;;
52180;SDS011;38158;53.338;6.514;2024-03-02T06:01:43;6.38;;;2.50;;
52180;SDS011;38158;53.338;6.514;2024-03-02T06:04:10;6.07;;;2.13;;
52180;SDS011;38158;53.338;6.514;2024-03-02T06:06:36;4.15;;;1.83;;
52180;SDS011;38158;53.338;6.514;2024-03-02T06:09:03;5.20;;;1.90;;
52180;SDS011;38158;53.338;6.514;2024-03-02T06:11:38;3.78;;;1.92;;
52180;SDS011;38158;53.338;6.514;2024-03-02T06:14:04;4.32;;;2.03;;
52180;SDS011;38158;53.338;6.514;2024-03-02T06:16:31;4.88;;;2.53;;
52180;SDS011;38158;53.338;6.514;2024-03-02T06:18:57;5.03;;;2.13;;
52180;SDS011;38158;53.338;6.514;2024-03-02T06:21:23;3.50;;;2.05;;
52180;SDS011;38158;53.338;6.514;2024-03-02T06:23:49;5.18;;;2.15;;
52180;SDS011;38158;53.338;6.514;2024-03-02T06:26:15;7.07;;;1.95;;
52180;SDS011;38158;53.338;6.514;2024-03-02T06:28:41;3.67;;;1.65;;
52180;SDS011;38158;53.338;6.514;2024-03-02T06:31:06;4.47;;;2.30;;
52180;SDS011;38158;53.338;6.514;2024-03-02T06:33:32;4.05;;;1.80;;
52180;SDS011;38158;53.338;6.514;2024-03-02T06:35:58;3.13;;;1.70;;
52180;SDS011;38158;53.338;6.514;2024-03-02T06:38:23;4.30;;;2.10;;
52180;SDS011;38158;53.338;6.514;2024-03-02T06:40:49;5.35;;;1.90;;
52180;SDS011;38158;53.338;6.514;2024-03-02T06:43:15;3.75;;;1.67;;
52180;SDS011;38158;53.338;6.514;2024-03-02T06:45:40;5.93;;;1.77;;
52180;SDS011;38158;53.338;6.514;2024-03-02T06:48:06;4.50;;;1.65;;
52180;SDS011;38158;53.338;6.514;2024-03-02T06:50:32;5.22;;;2.92;;
52180;SDS011;38158;53.338;6.514;2024-03-02T06:52:58;5.30;;;2.13;;
52180;SDS011;38158;53.338;6.514;2024-03-02T06:55:24;5.50;;;2.03;;
52180;SDS011;38158;53.338;6.514;2024-03-02T06:57:50;4.35;;;1.95;;
52180;SDS011;38158;53.338;6.514;2024-03-02T07:00:17;4.47;;;2.00;;
52180;SDS011;38158;53.338;6.514;2024-03-02T07:02:43;4.15;;;2.13;;
52180;SDS011;38158;53.338;6.514;2024-03-02T07:05:09;4.97;;;1.83;;
52180;SDS011;38158;53.338;6.514;2024-03-02T07:07:36;3.85;;;1.80;;
52180;SDS011;38158;53.338;6.514;2024-03-02T07:10:03;4.77;;;1.50;;
52180;SDS011;38158;53.338;6.514;2024-03-02T07:14:56;4.07;;;1.80;;
52180;SDS011;38158;53.338;6.514;2024-03-02T07:17:36;4.47;;;2.40;;
52180;SDS011;38158;53.338;6.514;2024-03-02T07:20:02;3.42;;;2.17;;
52180;SDS011;38158;53.338;6.514;2024-03-02T07:22:32;4.63;;;2.10;;
52180;SDS011;38158;53.338;6.514;2024-03-02T07:24:58;5.53;;;1.87;;
52180;SDS011;38158;53.338;6.514;2024-03-02T07:27:24;3.45;;;2.08;;
52180;SDS011;38158;53.338;6.514;2024-03-02T07:29:49;4.82;;;2.10;;
52180;SDS011;38158;53.338;6.514;2024-03-02T07:32:15;5.72;;;2.15;;
52180;SDS011;38158;53.338;6.514;2024-03-02T07:34:41;3.92;;;1.90;;
52180;SDS011;38158;53.338;6.514;2024-03-02T07:37:06;3.72;;;1.60;;
52180;SDS011;38158;53.338;6.514;2024-03-02T07:39:32;4.18;;;2.00;;
52180;SDS011;38158;53.338;6.514;2024-03-02T07:41:58;4.38;;;1.77;;
52180;SDS011;38158;53.338;6.514;2024-03-02T07:44:24;3.10;;;1.30;;
52180;SDS011;38158;53.338;6.514;2024-03-02T07:46:50;3.10;;;1.52;;
52180;SDS011;38158;53.338;6.514;2024-03-02T07:49:16;3.08;;;1.52;;
52180;SDS011;38158;53.338;6.514;2024-03-02T07:51:42;4.80;;;1.60;;
52180;SDS011;38158;53.338;6.514;2024-03-02T07:54:08;2.73;;;1.30;;
52180;SDS011;38158;53.338;6.514;2024-03-02T07:56:34;2.20;;;0.93;;
52180;SDS011;38158;53.338;6.514;2024-03-02T07:59:03;3.85;;;1.20;;
52180;SDS011;38158;53.338;6.514;2024-03-02T08:01:29;2.78;;;1.10;;
52180;SDS011;38158;53.338;6.514;2024-03-02T08:04:00;2.78;;;0.90;;
52180;SDS011;38158;53.338;6.514;2024-03-02T08:06:28;1.35;;;0.63;;
52180;SDS011;38158;53.338;6.514;2024-03-02T08:08:54;1.00;;;0.55;;
52180;SDS011;38158;53.338;6.514;2024-03-02T08:11:20;1.65;;;0.50;;
52180;SDS011;38158;53.338;6.514;2024-03-02T08:13:46;2.80;;;0.73;;
52180;SDS011;38158;53.338;6.514;2024-03-02T08:16:13;1.95;;;0.57;;
52180;SDS011;38158;53.338;6.514;2024-03-02T08:18:39;2.97;;;0.70;;
52180;SDS011;38158;53.338;6.514;2024-03-02T08:21:05;1.02;;;0.30;;
52180;SDS011;38158;53.338;6.514;2024-03-02T08:23:33;1.50;;;0.70;;
52180;SDS011;38158;53.338;6.514;2024-03-02T08:25:59;2.25;;;0.55;;
52180;SDS011;38158;53.338;6.514;2024-03-02T08:28:24;1.88;;;0.60;;
52180;SDS011;38158;53.338;6.514;2024-03-02T08:30:50;1.33;;;0.50;;
52180;SDS011;38158;53.338;6.514;2024-03-02T08:33:16;1.83;;;0.77;;
52180;SDS011;38158;53.338;6.514;2024-03-02T08:35:41;1.52;;;0.60;;
52180;SDS011;38158;53.338;6.514;2024-03-02T08:38:07;2.67;;;0.82;;
52180;SDS011;38158;53.338;6.514;2024-03-02T08:40:33;4.45;;;0.93;;
52180;SDS011;38158;53.338;6.514;2024-03-02T08:43:03;3.13;;;1.30;;
52180;SDS011;38158;53.338;6.514;2024-03-02T08:45:31;3.53;;;1.08;;
52180;SDS011;38158;53.338;6.514;2024-03-02T08:48:07;5.07;;;1.33;;
52180;SDS011;38158;53.338;6.514;2024-03-02T08:51:55;3.55;;;1.15;;
52180;SDS011;38158;53.338;6.514;2024-03-02T08:55:54;2.83;;;0.95;;
52180;SDS011;38158;53.338;6.514;2024-03-02T08:59:23;1.98;;;0.88;;
52180;SDS011;38158;53.338;6.514;2024-03-02T09:03:24;2.95;;;0.68;;
52180;SDS011;38158;53.338;6.514;2024-03-02T09:14:15;2.58;;;0.50;;
52180;SDS011;38158;53.338;6.514;2024-03-02T09:16:41;3.30;;;0.60;;
52180;SDS011;38158;53.338;6.514;2024-03-02T09:19:07;3.47;;;0.83;;
52180;SDS011;38158;53.338;6.514;2024-03-02T09:21:33;1.95;;;0.60;;
52180;SDS011;38158;53.338;6.514;2024-03-02T09:23:59;2.30;;;0.70;;
52180;SDS011;38158;53.338;6.514;2024-03-02T09:28:52;1.48;;;0.60;;
52180;SDS011;38158;53.338;6.514;2024-03-02T09:31:18;3.85;;;1.00;;
52180;SDS011;38158;53.338;6.514;2024-03-02T09:33:43;1.98;;;0.63;;
52180;SDS011;38158;53.338;6.514;2024-03-02T09:36:18;1.85;;;0.40;;
52180;SDS011;38158;53.338;6.514;2024-03-02T09:38:45;2.35;;;0.50;;
52180;SDS011;38158;53.338;6.514;2024-03-02T09:41:12;3.38;;;0.60;;
52180;SDS011;38158;53.338;6.514;2024-03-02T09:43:38;2.47;;;0.40;;
52180;SDS011;38158;53.338;6.514;2024-03-02T09:46:04;1.95;;;0.50;;
52180;SDS011;38158;53.338;6.514;2024-03-02T09:48:31;2.30;;;0.60;;
52180;SDS011;38158;53.338;6.514;2024-03-02T09:50:57;2.53;;;0.50;;
52180;SDS011;38158;53.338;6.514;2024-03-02T09:53:23;2.53;;;0.70;;
52180;SDS011;38158;53.338;6.514;2024-03-02T09:55:49;1.65;;;0.52;;
52180;SDS011;38158;53.338;6.514;2024-03-02T09:58:15;1.73;;;0.40;;
52180;SDS011;38158;53.338;6.514;2024-03-02T10:00:41;2.55;;;0.60;;
52180;SDS011;38158;53.338;6.514;2024-03-02T10:03:11;1.52;;;0.40;;
52180;SDS011;38158;53.338;6.514;2024-03-02T10:05:37;2.00;;;0.57;;
52180;SDS011;38158;53.338;6.514;2024-03-02T10:08:03;2.03;;;0.40;;
52180;SDS011;38158;53.338;6.514;2024-03-02T10:10:39;3.75;;;0.57;;
52180;SDS011;38158;53.338;6.514;2024-03-02T10:13:07;3.67;;;0.45;;
52180;SDS011;38158;53.338;6.514;2024-03-02T10:15:33;4.72;;;0.60;;
52180;SDS011;38158;53.338;6.514;2024-03-02T10:17:59;2.45;;;0.50;;
52180;SDS011;38158;53.338;6.514;2024-03-02T10:20:25;2.95;;;0.50;;
52180;SDS011;38158;53.338;6.514;2024-03-02T10:22:54;3.15;;;0.50;;
52180;SDS011;38158;53.338;6.514;2024-03-02T10:25:33;1.95;;;0.50;;
52180;SDS011;38158;53.338;6.514;2024-03-02T10:27:59;2.33;;;0.60;;
52180;SDS011;38158;53.338;6.514;2024-03-02T10:30:28;4.18;;;0.77;;
52180;SDS011;38158;53.338;6.514;2024-03-02T10:32:54;2.22;;;0.70;;
52180;SDS011;38158;53.338;6.514;2024-03-02T10:35:21;3.95;;;0.85;;
52180;SDS011;38158;53.338;6.514;2024-03-02T10:37:48;3.97;;;0.60;;
52180;SDS011;38158;53.338;6.514;2024-03-02T10:40:14;4.53;;;0.90;;
52180;SDS011;38158;53.338;6.514;2024-03-02T10:42:41;2.80;;;0.80;;
52180;SDS011;38158;53.338;6.514;2024-03-02T10:45:09;0.95;;;0.52;;
52180;SDS011;38158;53.338;6.514;2024-03-02T10:47:36;2.55;;;0.63;;
52180;SDS011;38158;53.338;6.514;2024-03-02T10:50:04;2.65;;;0.70;;
52180;SDS011;38158;53.338;6.514;2024-03-02T10:52:37;2.80;;;0.73;;
52180;SDS011;38158;53.338;6.514;2024-03-02T10:55:04;3.38;;;0.73;;
52180;SDS011;38158;53.338;6.514;2024-03-02T11:00:19;2.40;;;0.80;;
52180;SDS011;38158;53.338;6.514;2024-03-02T11:02:52;2.00;;;0.57;;
52180;SDS011;38158;53.338;6.514;2024-03-02T11:05:29;3.00;;;1.13;;
52180;SDS011;38158;53.338;6.514;2024-03-02T11:08:02;1.52;;;0.55;;
52180;SDS011;38158;53.338;6.514;2024-03-02T11:10:40;3.35;;;0.60;;
52180;SDS011;38158;53.338;6.514;2024-03-02T11:13:13;4.57;;;0.90;;
52180;SDS011;38158;53.338;6.514;2024-03-02T11:15:45;3.78;;;1.30;;
52180;SDS011;38158;53.338;6.514;2024-03-02T11:18:11;3.40;;;1.00;;
52180;SDS011;38158;53.338;6.514;2024-03-02T11:20:37;4.63;;;0.73;;
52180;SDS011;38158;53.338;6.514;2024-03-02T11:23:08;3.63;;;0.85;;
52180;SDS011;38158;53.338;6.514;2024-03-02T11:25:35;1.92;;;0.80;;
52180;SDS011;38158;53.338;6.514;2024-03-02T11:28:01;4.35;;;1.02;;
52180;SDS011;38158;53.338;6.514;2024-03-02T11:32:57;3.97;;;0.95;;
52180;SDS011;38158;53.338;6.514;2024-03-02T11:35:33;1.83;;;0.73;;
52180;SDS011;38158;53.338;6.514;2024-03-02T11:38:13;3.10;;;0.60;;
52180;SDS011;38158;53.338;6.514;2024-03-02T11:40:39;3.70;;;0.77;;
52180;SDS011;38158;53.338;6.514;2024-03-02T11:43:05;2.30;;;0.70;;
52180;SDS011;38158;53.338;6.514;2024-03-02T11:45:31;2.08;;;0.60;;
52180;SDS011;38158;53.338;6.514;2024-03-02T11:50:40;2.72;;;0.85;;
52180;SDS011;38158;53.338;6.514;2024-03-02T11:53:14;2.90;;;1.00;;
52180;SDS011;38158;53.338;6.514;2024-03-02T11:55:41;3.20;;;0.93;;
52180;SDS011;38158;53.338;6.514;2024-03-02T11:58:11;1.67;;;0.80;;
52180;SDS011;38158;53.338;6.514;2024-03-02T12:00:38;4.30;;;0.70;;
52180;SDS011;38158;53.338;6.514;2024-03-02T12:03:04;2.63;;;0.80;;
52180;SDS011;38158;53.338;6.514;2024-03-02T12:05:34;2.70;;;0.70;;
52180;SDS011;38158;53.338;6.514;2024-03-02T12:08:05;3.03;;;0.80;;
52180;SDS011;38158;53.338;6.514;2024-03-02T12:10:31;2.67;;;0.77;;
52180;SDS011;38158;53.338;6.514;2024-03-02T12:12:58;2.40;;;0.90;;
52180;SDS011;38158;53.338;6.514;2024-03-02T12:15:31;2.58;;;0.80;;
52180;SDS011;38158;53.338;6.514;2024-03-02T12:17:59;2.33;;;0.90;;
52180;SDS011;38158;53.338;6.514;2024-03-02T12:20:26;1.70;;;0.50;;
52180;SDS011;38158;53.338;6.514;2024-03-02T12:22:54;3.63;;;0.82;;
52180;SDS011;38158;53.338;6.514;2024-03-02T12:25:21;1.63;;;0.45;;
52180;SDS011;38158;53.338;6.514;2024-03-02T12:27:49;3.83;;;0.70;;
52180;SDS011;38158;53.338;6.514;2024-03-02T12:30:19;3.75;;;0.90;;
52180;SDS011;38158;53.338;6.514;2024-03-02T12:32:46;2.67;;;0.63;;
52180;SDS011;38158;53.338;6.514;2024-03-02T12:35:12;2.47;;;0.60;;
52180;SDS011;38158;53.338;6.514;2024-03-02T12:37:43;2.58;;;0.63;;
52180;SDS011;38158;53.338;6.514;2024-03-02T12:40:17;2.92;;;0.90;;
52180;SDS011;38158;53.338;6.514;2024-03-02T12:42:44;2.05;;;0.63;;
52180;SDS011;38158;53.338;6.514;2024-03-02T12:45:11;2.10;;;0.50;;
52180;SDS011;38158;53.338;6.514;2024-03-02T12:47:37;5.45;;;1.05;;
52180;SDS011;38158;53.338;6.514;2024-03-02T12:50:04;2.97;;;0.60;;
52180;SDS011;38158;53.338;6.514;2024-03-02T12:52:30;3.30;;;0.60;;
52180;SDS011;38158;53.338;6.514;2024-03-02T12:55:03;3.10;;;0.82;;
52180;SDS011;38158;53.338;6.514;2024-03-02T12:57:30;3.53;;;0.70;;
52180;SDS011;38158;53.338;6.514;2024-03-02T13:00:04;3.25;;;1.30;;
52180;SDS011;38158;53.338;6.514;2024-03-02T13:02:34;2.60;;;0.95;;
52180;SDS011;38158;53.338;6.514;2024-03-02T13:05:06;3.45;;;0.80;;
52180;SDS011;38158;53.338;6.514;2024-03-02T13:07:39;1.75;;;0.75;;
52180;SDS011;38158;53.338;6.514;2024-03-02T13:10:06;4.63;;;0.77;;
52180;SDS011;38158;53.338;6.514;2024-03-02T13:12:35;3.20;;;1.20;;
52180;SDS011;38158;53.338;6.514;2024-03-02T13:15:01;4.05;;;1.00;;
52180;SDS011;38158;53.338;6.514;2024-03-02T13:19:57;3.17;;;1.10;;
52180;SDS011;38158;53.338;6.514;2024-03-02T13:22:24;2.20;;;1.08;;
52180;SDS011;38158;53.338;6.514;2024-03-02T13:24:51;4.65;;;1.70;;
52180;SDS011;38158;53.338;6.514;2024-03-02T13:27:19;3.28;;;1.52;;
52180;SDS011;38158;53.338;6.514;2024-03-02T13:29:48;5.13;;;1.42;;
52180;SDS011;38158;53.338;6.514;2024-03-02T13:32:14;2.80;;;1.23;;
52180;SDS011;38158;53.338;6.514;2024-03-02T13:34:40;5.72;;;1.35;;
52180;SDS011;38158;53.338;6.514;2024-03-02T13:37:06;3.45;;;1.25;;
52180;SDS011;38158;53.338;6.514;2024-03-02T13:39:32;3.40;;;1.35;;
52180;SDS011;38158;53.338;6.514;2024-03-02T13:42:00;2.53;;;1.27;;
52180;SDS011;38158;53.338;6.514;2024-03-02T13:44:30;3.85;;;1.83;;
52180;SDS011;38158;53.338;6.514;2024-03-02T13:46:56;3.13;;;1.88;;
52180;SDS011;38158;53.338;6.514;2024-03-02T13:49:23;3.92;;;2.22;;
52180;SDS011;38158;53.338;6.514;2024-03-02T13:51:49;3.28;;;1.90;;
52180;SDS011;38158;53.338;6.514;2024-03-02T13:54:15;4.85;;;2.67;;
52180;SDS011;38158;53.338;6.514;2024-03-02T13:56:40;4.53;;;2.20;;
52180;SDS011;38158;53.338;6.514;2024-03-02T13:59:06;3.67;;;2.33;;
52180;SDS011;38158;53.338;6.514;2024-03-02T14:01:33;4.32;;;2.80;;
52180;SDS011;38158;53.338;6.514;2024-03-02T14:03:59;4.53;;;2.30;;
52180;SDS011;38158;53.338;6.514;2024-03-02T14:06:24;4.70;;;2.50;;
52180;SDS011;38158;53.338;6.514;2024-03-02T14:08:53;7.07;;;2.67;;
52180;SDS011;38158;53.338;6.514;2024-03-02T14:11:19;6.03;;;2.60;;
52180;SDS011;38158;53.338;6.514;2024-03-02T14:13:45;5.70;;;3.05;;
52180;SDS011;38158;53.338;6.514;2024-03-02T14:16:14;3.55;;;2.38;;
52180;SDS011;38158;53.338;6.514;2024-03-02T14:18:41;6.15;;;2.60;;
52180;SDS011;38158;53.338;6.514;2024-03-02T14:21:07;4.18;;;2.63;;
52180;SDS011;38158;53.338;6.514;2024-03-02T14:23:33;4.57;;;3.03;;
52180;SDS011;38158;53.338;6.514;2024-03-02T14:25:58;4.38;;;2.88;;
52180;SDS011;38158;53.338;6.514;2024-03-02T14:28:25;5.03;;;2.70;;
52180;SDS011;38158;53.338;6.514;2024-03-02T14:30:51;4.75;;;2.95;;
52180;SDS011;38158;53.338;6.514;2024-03-02T14:33:16;5.57;;;2.70;;
52180;SDS011;38158;53.338;6.514;2024-03-02T14:35:44;4.97;;;2.70;;
52180;SDS011;38158;53.338;6.514;2024-03-02T14:38:10;4.80;;;2.85;;
52180;SDS011;38158;53.338;6.514;2024-03-02T14:40:37;4.13;;;2.30;;
52180;SDS011;38158;53.338;6.514;2024-03-02T14:43:03;4.38;;;2.20;;
52180;SDS011;38158;53.338;6.514;2024-03-02T14:45:29;6.03;;;2.05;;
52180;SDS011;38158;53.338;6.514;2024-03-02T14:47:55;3.20;;;1.80;;
52180;SDS011;38158;53.338;6.514;2024-03-02T14:50:24;5.97;;;2.70;;
52180;SDS011;38158;53.338;6.514;2024-03-02T14:52:52;4.32;;;2.22;;
52180;SDS011;38158;53.338;6.514;2024-03-02T14:55:18;3.45;;;2.15;;
52180;SDS011;38158;53.338;6.514;2024-03-02T14:57:46;4.85;;;1.85;;
52180;SDS011;38158;53.338;6.514;2024-03-02T15:00:12;5.10;;;1.73;;
52180;SDS011;38158;53.338;6.514;2024-03-02T15:02:38;4.38;;;1.55;;
52180;SDS011;38158;53.338;6.514;2024-03-02T15:05:03;3.33;;;1.98;;
52180;SDS011;38158;53.338;6.514;2024-03-02T15:07:32;4.25;;;2.10;;
52180;SDS011;38158;53.338;6.514;2024-03-02T15:09:58;2.78;;;1.65;;
52180;SDS011;38158;53.338;6.514;2024-03-02T15:12:23;4.40;;;2.42;;
52180;SDS011;38158;53.338;6.514;2024-03-02T15:14:49;5.22;;;2.15;;
52180;SDS011;38158;53.338;6.514;2024-03-02T15:17:15;4.30;;;2.30;;
52180;SDS011;38158;53.338;6.514;2024-03-02T15:19:45;4.28;;;2.28;;
52180;SDS011;38158;53.338;6.514;2024-03-02T15:22:11;5.82;;;2.42;;